sensor_id;sensor_type;location;lat;lon;timestamp;P1;durP1;ratioP1;P2;durP2;ratioP2
55136;SDS011;41032;47.818;-3.732;2022-07-05T00:01:19;1.85;;;0.60;;
55136;SDS011;41032;47.818;-3.732;2022-07-05T00:03:48;1.10;;;0.55;;
55136;SDS011;41032;47.818;-3.732;2022-07-05T00:06:17;1.30;;;0.50;;
55136;SDS011;41032;47.818;-3.732;2022-07-05T00:08:46;0.60;;;0.30;;
55136;SDS011;41032;47.818;-3.732;2022-07-05T00:11:14;1.17;;;0.65;;
55136;SDS011;41032;47.818;-3.732;2022-07-05T00:13:42;1.48;;;0.50;;
55136;SDS011;41032;47.818;-3.732;2022-07-05T00:16:11;1.13;;;0.40;;
55136;SDS011;41032;47.818;-3.732;2022-07-05T00:18:40;0.30;;;0.30;;
55136;SDS011;41032;47.818;-3.732;2022-07-05T00:21:08;0.73;;;0.38;;
55136;SDS011;41032;47.818;-3.732;2022-07-05T00:23:35;0.70;;;0.40;;
55136;SDS011;41032;47.818;-3.732;2022-07-05T00:26:04;0.98;;;0.50;;
55136;SDS011;41032;47.818;-3.732;2022-07-05T00:28:33;0.73;;;0.60;;
55136;SDS011;41032;47.818;-3.732;2022-07-05T00:31:02;1.33;;;0.50;;
55136;SDS011;41032;47.818;-3.732;2022-07-05T00:33:30;2.03;;;0.40;;
55136;SDS011;41032;47.818;-3.732;2022-07-05T00:35:58;0.77;;;0.50;;
55136;SDS011;41032;47.818;-3.732;2022-07-05T00:38:27;0.95;;;0.50;;
55136;SDS011;41032;47.818;-3.732;2022-07-05T00:40:56;0.75;;;0.40;;
55136;SDS011;41032;47.818;-3.732;2022-07-05T00:43:24;2.13;;;0.63;;
55136;SDS011;41032;47.818;-3.732;2022-07-05T00:45:53;0.50;;;0.50;;
55136;SDS011;41032;47.818;-3.732;2022-07-05T00:48:21;3.40;;;0.50;;
55136;SDS011;41032;47.818;-3.732;2022-07-05T00:50:49;1.17;;;0.50;;
55136;SDS011;41032;47.818;-3.732;2022-07-05T00:53:17;0.82;;;0.38;;
55136;SDS011;41032;47.818;-3.732;2022-07-05T00:55:45;0.90;;;0.40;;
55136;SDS011;41032;47.818;-3.732;2022-07-05T00:58:14;0.30;;;0.28;;
55136;SDS011;41032;47.818;-3.732;2022-07-05T01:00:43;1.25;;;0.60;;
55136;SDS011;41032;47.818;-3.732;2022-07-05T01:03:11;0.88;;;0.40;;
55136;SDS011;41032;47.818;-3.732;2022-07-05T01:05:40;1.55;;;0.40;;
55136;SDS011;41032;47.818;-3.732;2022-07-05T01:08:08;2.15;;;0.47;;
55136;SDS011;41032;47.818;-3.732;2022-07-05T01:10:37;0.90;;;0.30;;
55136;SDS011;41032;47.818;-3.732;2022-07-05T01:13:06;0.40;;;0.30;;
55136;SDS011;41032;47.818;-3.732;2022-07-05T01:15:36;1.35;;;0.50;;
55136;SDS011;41032;47.818;-3.732;2022-07-05T01:18:04;2.28;;;0.40;;
55136;SDS011;41032;47.818;-3.732;2022-07-05T01:20:33;1.67;;;0.60;;
55136;SDS011;41032;47.818;-3.732;2022-07-05T01:23:02;1.20;;;0.35;;
55136;SDS011;41032;47.818;-3.732;2022-07-05T01:25:31;0.40;;;0.40;;
55136;SDS011;41032;47.818;-3.732;2022-07-05T01:27:59;0.43;;;0.22;;
55136;SDS011;41032;47.818;-3.732;2022-07-05T01:30:29;1.27;;;0.40;;
55136;SDS011;41032;47.818;-3.732;2022-07-05T01:32:58;2.55;;;0.40;;
55136;SDS011;41032;47.818;-3.732;2022-07-05T01:35:27;3.70;;;0.60;;
55136;SDS011;41032;47.818;-3.732;2022-07-05T01:37:55;1.25;;;0.40;;
55136;SDS011;41032;47.818;-3.732;2022-07-05T01:40:24;0.45;;;0.22;;
55136;SDS011;41032;47.818;-3.732;2022-07-05T01:42:52;2.50;;;0.50;;
55136;SDS011;41032;47.818;-3.732;2022-07-05T01:45:21;2.28;;;0.47;;
55136;SDS011;41032;47.818;-3.732;2022-07-05T01:48:09;2.10;;;0.32;;
55136;SDS011;41032;47.818;-3.732;2022-07-05T01:50:49;1.15;;;0.20;;
55136;SDS011;41032;47.818;-3.732;2022-07-05T01:53:20;1.23;;;0.50;;
55136;SDS011;41032;47.818;-3.732;2022-07-05T01:55:50;0.85;;;0.30;;
55136;SDS011;41032;47.818;-3.732;2022-07-05T01:58:19;2.97;;;0.45;;
55136;SDS011;41032;47.818;-3.732;2022-07-05T02:00:48;1.65;;;0.45;;
55136;SDS011;41032;47.818;-3.732;2022-07-05T02:03:18;0.98;;;0.57;;
55136;SDS011;41032;47.818;-3.732;2022-07-05T02:05:46;0.77;;;0.40;;
55136;SDS011;41032;47.818;-3.732;2022-07-05T02:08:15;0.52;;;0.30;;
55136;SDS011;41032;47.818;-3.732;2022-07-05T02:10:44;2.08;;;0.30;;
55136;SDS011;41032;47.818;-3.732;2022-07-05T02:13:12;0.90;;;0.30;;
55136;SDS011;41032;47.818;-3.732;2022-07-05T02:15:41;0.50;;;0.30;;
55136;SDS011;41032;47.818;-3.732;2022-07-05T02:18:09;0.93;;;0.43;;
55136;SDS011;41032;47.818;-3.732;2022-07-05T02:20:38;1.20;;;0.50;;
55136;SDS011;41032;47.818;-3.732;2022-07-05T02:23:07;2.45;;;0.65;;
55136;SDS011;41032;47.818;-3.732;2022-07-05T02:25:36;0.40;;;0.20;;
55136;SDS011;41032;47.818;-3.732;2022-07-05T02:28:04;1.10;;;0.30;;
55136;SDS011;41032;47.818;-3.732;2022-07-05T02:30:32;2.38;;;0.38;;
55136;SDS011;41032;47.818;-3.732;2022-07-05T02:33:00;0.93;;;0.28;;
55136;SDS011;41032;47.818;-3.732;2022-07-05T02:35:30;0.68;;;0.30;;
55136;SDS011;41032;47.818;-3.732;2022-07-05T02:37:59;3.50;;;0.40;;
55136;SDS011;41032;47.818;-3.732;2022-07-05T02:40:27;0.60;;;0.20;;
55136;SDS011;41032;47.818;-3.732;2022-07-05T02:42:55;1.73;;;0.30;;
55136;SDS011;41032;47.818;-3.732;2022-07-05T02:45:24;1.60;;;0.30;;
55136;SDS011;41032;47.818;-3.732;2022-07-05T02:47:52;0.55;;;0.30;;
55136;SDS011;41032;47.818;-3.732;2022-07-05T02:50:21;0.93;;;0.32;;
55136;SDS011;41032;47.818;-3.732;2022-07-05T02:52:49;0.98;;;0.20;;
55136;SDS011;41032;47.818;-3.732;2022-07-05T02:55:18;1.08;;;0.30;;
55136;SDS011;41032;47.818;-3.732;2022-07-05T02:57:47;1.08;;;0.40;;
55136;SDS011;41032;47.818;-3.732;2022-07-05T03:00:15;0.30;;;0.25;;
55136;SDS011;41032;47.818;-3.732;2022-07-05T03:02:44;0.30;;;0.28;;
55136;SDS011;41032;47.818;-3.732;2022-07-05T03:05:12;0.20;;;0.20;;
55136;SDS011;41032;47.818;-3.732;2022-07-05T03:07:41;0.43;;;0.20;;
55136;SDS011;41032;47.818;-3.732;2022-07-05T03:10:09;0.22;;;0.20;;
55136;SDS011;41032;47.818;-3.732;2022-07-05T03:12:38;3.13;;;0.50;;
55136;SDS011;41032;47.818;-3.732;2022-07-05T03:15:07;0.25;;;0.20;;
55136;SDS011;41032;47.818;-3.732;2022-07-05T03:17:35;0.28;;;0.20;;
55136;SDS011;41032;47.818;-3.732;2022-07-05T03:20:04;0.22;;;0.20;;
55136;SDS011;41032;47.818;-3.732;2022-07-05T03:22:33;1.65;;;0.40;;
55136;SDS011;41032;47.818;-3.732;2022-07-05T03:25:01;0.85;;;0.47;;
55136;SDS011;41032;47.818;-3.732;2022-07-05T03:27:30;0.20;;;0.10;;
55136;SDS011;41032;47.818;-3.732;2022-07-05T03:29:59;0.63;;;0.30;;
55136;SDS011;41032;47.818;-3.732;2022-07-05T03:32:27;0.10;;;0.10;;
55136;SDS011;41032;47.818;-3.732;2022-07-05T03:34:56;0.25;;;0.20;;
55136;SDS011;41032;47.818;-3.732;2022-07-05T03:37:25;0.47;;;0.30;;
55136;SDS011;41032;47.818;-3.732;2022-07-05T03:39:52;0.57;;;0.20;;
55136;SDS011;41032;47.818;-3.732;2022-07-05T03:42:21;0.40;;;0.20;;
55136;SDS011;41032;47.818;-3.732;2022-07-05T03:44:49;1.95;;;0.30;;
55136;SDS011;41032;47.818;-3.732;2022-07-05T03:47:19;2.15;;;0.30;;
55136;SDS011;41032;47.818;-3.732;2022-07-05T03:49:47;1.63;;;0.30;;
55136;SDS011;41032;47.818;-3.732;2022-07-05T03:52:16;0.57;;;0.40;;
55136;SDS011;41032;47.818;-3.732;2022-07-05T03:54:44;0.57;;;0.20;;
55136;SDS011;41032;47.818;-3.732;2022-07-05T03:57:13;0.10;;;0.10;;
55136;SDS011;41032;47.818;-3.732;2022-07-05T03:59:41;0.30;;;0.10;;
55136;SDS011;41032;47.818;-3.732;2022-07-05T04:02:10;0.22;;;0.20;;
55136;SDS011;41032;47.818;-3.732;2022-07-05T04:04:39;0.13;;;0.10;;
55136;SDS011;41032;47.818;-3.732;2022-07-05T04:07:07;0.50;;;0.20;;
55136;SDS011;41032;47.818;-3.732;2022-07-05T04:09:36;0.63;;;0.30;;
55136;SDS011;41032;47.818;-3.732;2022-07-05T04:12:04;2.92;;;0.43;;
55136;SDS011;41032;47.818;-3.732;2022-07-05T04:14:33;0.40;;;0.20;;
55136;SDS011;41032;47.818;-3.732;2022-07-05T04:17:02;0.15;;;0.15;;
55136;SDS011;41032;47.818;-3.732;2022-07-05T04:19:30;0.13;;;0.10;;
55136;SDS011;41032;47.818;-3.732;2022-07-05T04:21:59;0.28;;;0.20;;
55136;SDS011;41032;47.818;-3.732;2022-07-05T04:24:27;1.08;;;0.30;;
55136;SDS011;41032;47.818;-3.732;2022-07-05T04:26:56;0.30;;;0.10;;
55136;SDS011;41032;47.818;-3.732;2022-07-05T04:29:24;1.25;;;0.35;;
55136;SDS011;41032;47.818;-3.732;2022-07-05T04:31:52;0.68;;;0.28;;
55136;SDS011;41032;47.818;-3.732;2022-07-05T04:34:21;2.17;;;0.30;;
55136;SDS011;41032;47.818;-3.732;2022-07-05T04:36:48;0.93;;;0.20;;
55136;SDS011;41032;47.818;-3.732;2022-07-05T04:39:16;0.68;;;0.30;;
55136;SDS011;41032;47.818;-3.732;2022-07-05T04:41:46;0.68;;;0.25;;
55136;SDS011;41032;47.818;-3.732;2022-07-05T04:44:14;0.63;;;0.15;;
55136;SDS011;41032;47.818;-3.732;2022-07-05T04:46:43;0.10;;;0.10;;
55136;SDS011;41032;47.818;-3.732;2022-07-05T04:49:11;0.25;;;0.20;;
55136;SDS011;41032;47.818;-3.732;2022-07-05T04:51:38;1.23;;;0.20;;
55136;SDS011;41032;47.818;-3.732;2022-07-05T04:54:07;0.75;;;0.20;;
55136;SDS011;41032;47.818;-3.732;2022-07-05T04:56:35;0.30;;;0.20;;
55136;SDS011;41032;47.818;-3.732;2022-07-05T04:59:03;0.32;;;0.20;;
55136;SDS011;41032;47.818;-3.732;2022-07-05T05:01:31;0.38;;;0.20;;
55136;SDS011;41032;47.818;-3.732;2022-07-05T05:04:00;0.65;;;0.30;;
55136;SDS011;41032;47.818;-3.732;2022-07-05T05:06:28;0.38;;;0.30;;
55136;SDS011;41032;47.818;-3.732;2022-07-05T05:08:55;0.57;;;0.28;;
55136;SDS011;41032;47.818;-3.732;2022-07-05T05:11:23;2.05;;;0.20;;
55136;SDS011;41032;47.818;-3.732;2022-07-05T05:13:52;0.57;;;0.20;;
55136;SDS011;41032;47.818;-3.732;2022-07-05T05:16:20;0.70;;;0.20;;
55136;SDS011;41032;47.818;-3.732;2022-07-05T05:18:47;0.47;;;0.20;;
55136;SDS011;41032;47.818;-3.732;2022-07-05T05:21:16;0.43;;;0.22;;
55136;SDS011;41032;47.818;-3.732;2022-07-05T05:23:45;0.20;;;0.20;;
55136;SDS011;41032;47.818;-3.732;2022-07-05T05:26:13;0.20;;;0.20;;
55136;SDS011;41032;47.818;-3.732;2022-07-05T05:28:42;0.40;;;0.20;;
55136;SDS011;41032;47.818;-3.732;2022-07-05T05:31:11;0.35;;;0.20;;
55136;SDS011;41032;47.818;-3.732;2022-07-05T05:33:39;1.35;;;0.30;;
55136;SDS011;41032;47.818;-3.732;2022-07-05T05:36:06;0.20;;;0.20;;
55136;SDS011;41032;47.818;-3.732;2022-07-05T05:38:35;0.38;;;0.20;;
55136;SDS011;41032;47.818;-3.732;2022-07-05T05:41:03;1.27;;;0.20;;
55136;SDS011;41032;47.818;-3.732;2022-07-05T05:43:32;0.90;;;0.30;;
55136;SDS011;41032;47.818;-3.732;2022-07-05T05:46:00;0.85;;;0.20;;
55136;SDS011;41032;47.818;-3.732;2022-07-05T05:48:30;1.23;;;0.20;;
55136;SDS011;41032;47.818;-3.732;2022-07-05T05:50:58;0.88;;;0.30;;
55136;SDS011;41032;47.818;-3.732;2022-07-05T05:53:26;0.20;;;0.10;;
55136;SDS011;41032;47.818;-3.732;2022-07-05T05:55:55;0.10;;;0.10;;
55136;SDS011;41032;47.818;-3.732;2022-07-05T05:58:24;1.23;;;0.10;;
55136;SDS011;41032;47.818;-3.732;2022-07-05T06:00:52;0.30;;;0.20;;
55136;SDS011;41032;47.818;-3.732;2022-07-05T06:03:20;0.45;;;0.10;;
55136;SDS011;41032;47.818;-3.732;2022-07-05T06:05:50;0.47;;;0.25;;
55136;SDS011;41032;47.818;-3.732;2022-07-05T06:08:18;0.50;;;0.30;;
55136;SDS011;41032;47.818;-3.732;2022-07-05T06:10:47;1.00;;;0.30;;
55136;SDS011;41032;47.818;-3.732;2022-07-05T06:13:16;1.48;;;0.40;;
55136;SDS011;41032;47.818;-3.732;2022-07-05T06:15:44;2.33;;;0.47;;
55136;SDS011;41032;47.818;-3.732;2022-07-05T06:18:12;0.68;;;0.40;;
55136;SDS011;41032;47.818;-3.732;2022-07-05T06:20:41;0.45;;;0.30;;
55136;SDS011;41032;47.818;-3.732;2022-07-05T06:23:10;1.60;;;0.55;;
55136;SDS011;41032;47.818;-3.732;2022-07-05T06:25:37;0.75;;;0.30;;
55136;SDS011;41032;47.818;-3.732;2022-07-05T06:28:07;0.50;;;0.22;;
55136;SDS011;41032;47.818;-3.732;2022-07-05T06:30:37;2.28;;;0.50;;
55136;SDS011;41032;47.818;-3.732;2022-07-05T06:33:05;3.17;;;0.55;;
55136;SDS011;41032;47.818;-3.732;2022-07-05T06:35:34;0.93;;;0.25;;
55136;SDS011;41032;47.818;-3.732;2022-07-05T06:38:03;2.05;;;0.30;;
55136;SDS011;41032;47.818;-3.732;2022-07-05T06:40:36;1.80;;;0.28;;
55136;SDS011;41032;47.818;-3.732;2022-07-05T06:43:11;2.45;;;0.35;;
55136;SDS011;41032;47.818;-3.732;2022-07-05T06:45:40;0.93;;;0.35;;
55136;SDS011;41032;47.818;-3.732;2022-07-05T06:48:09;3.05;;;0.55;;
55136;SDS011;41032;47.818;-3.732;2022-07-05T06:50:39;1.42;;;0.35;;
55136;SDS011;41032;47.818;-3.732;2022-07-05T06:53:08;0.35;;;0.15;;
55136;SDS011;41032;47.818;-3.732;2022-07-05T06:55:37;1.75;;;0.30;;
55136;SDS011;41032;47.818;-3.732;2022-07-05T06:58:16;0.88;;;0.20;;
55136;SDS011;41032;47.818;-3.732;2022-07-05T07:00:44;1.90;;;0.43;;
55136;SDS011;41032;47.818;-3.732;2022-07-05T07:03:12;0.60;;;0.32;;
55136;SDS011;41032;47.818;-3.732;2022-07-05T07:05:41;2.42;;;0.55;;
55136;SDS011;41032;47.818;-3.732;2022-07-05T07:08:09;0.30;;;0.20;;
55136;SDS011;41032;47.818;-3.732;2022-07-05T07:10:56;1.70;;;0.45;;
55136;SDS011;41032;47.818;-3.732;2022-07-05T07:13:25;0.75;;;0.10;;
55136;SDS011;41032;47.818;-3.732;2022-07-05T07:15:54;0.40;;;0.20;;
55136;SDS011;41032;47.818;-3.732;2022-07-05T07:18:22;0.22;;;0.20;;
55136;SDS011;41032;47.818;-3.732;2022-07-05T07:20:51;3.13;;;0.20;;
55136;SDS011;41032;47.818;-3.732;2022-07-05T07:23:19;1.38;;;0.30;;
55136;SDS011;41032;47.818;-3.732;2022-07-05T07:25:48;0.10;;;0.10;;
55136;SDS011;41032;47.818;-3.732;2022-07-05T07:28:16;0.22;;;0.20;;
55136;SDS011;41032;47.818;-3.732;2022-07-05T07:30:45;0.38;;;0.20;;
55136;SDS011;41032;47.818;-3.732;2022-07-05T07:33:13;0.30;;;0.20;;
55136;SDS011;41032;47.818;-3.732;2022-07-05T07:35:42;1.13;;;0.38;;
55136;SDS011;41032;47.818;-3.732;2022-07-05T07:38:10;1.00;;;0.30;;
55136;SDS011;41032;47.818;-3.732;2022-07-05T07:40:38;0.47;;;0.17;;
55136;SDS011;41032;47.818;-3.732;2022-07-05T07:43:06;0.52;;;0.13;;
55136;SDS011;41032;47.818;-3.732;2022-07-05T07:45:35;0.55;;;0.30;;
55136;SDS011;41032;47.818;-3.732;2022-07-05T07:48:03;0.57;;;0.20;;
55136;SDS011;41032;47.818;-3.732;2022-07-05T07:50:32;1.13;;;0.22;;
55136;SDS011;41032;47.818;-3.732;2022-07-05T07:53:00;1.50;;;0.30;;
55136;SDS011;41032;47.818;-3.732;2022-07-05T07:55:29;1.52;;;0.43;;
55136;SDS011;41032;47.818;-3.732;2022-07-05T07:57:56;0.32;;;0.20;;
55136;SDS011;41032;47.818;-3.732;2022-07-05T08:00:24;1.27;;;0.30;;
55136;SDS011;41032;47.818;-3.732;2022-07-05T08:02:52;0.77;;;0.40;;
55136;SDS011;41032;47.818;-3.732;2022-07-05T08:05:21;1.48;;;0.30;;
55136;SDS011;41032;47.818;-3.732;2022-07-05T08:07:49;0.40;;;0.30;;
55136;SDS011;41032;47.818;-3.732;2022-07-05T08:10:17;1.02;;;0.30;;
55136;SDS011;41032;47.818;-3.732;2022-07-05T08:12:45;0.22;;;0.17;;
55136;SDS011;41032;47.818;-3.732;2022-07-05T08:15:13;0.35;;;0.20;;
55136;SDS011;41032;47.818;-3.732;2022-07-05T08:17:42;0.38;;;0.25;;
55136;SDS011;41032;47.818;-3.732;2022-07-05T08:20:29;1.00;;;0.30;;
55136;SDS011;41032;47.818;-3.732;2022-07-05T08:23:16;0.90;;;0.30;;
55136;SDS011;41032;47.818;-3.732;2022-07-05T08:25:44;0.20;;;0.10;;
55136;SDS011;41032;47.818;-3.732;2022-07-05T08:28:12;1.10;;;0.40;;
55136;SDS011;41032;47.818;-3.732;2022-07-05T08:30:41;1.17;;;0.20;;
55136;SDS011;41032;47.818;-3.732;2022-07-05T08:33:08;0.60;;;0.20;;
55136;SDS011;41032;47.818;-3.732;2022-07-05T08:35:37;0.85;;;0.50;;
55136;SDS011;41032;47.818;-3.732;2022-07-05T08:38:05;0.20;;;0.20;;
55136;SDS011;41032;47.818;-3.732;2022-07-05T08:40:33;0.60;;;0.30;;
55136;SDS011;41032;47.818;-3.732;2022-07-05T08:43:05;0.32;;;0.20;;
55136;SDS011;41032;47.818;-3.732;2022-07-05T08:45:34;3.03;;;2.00;;
55136;SDS011;41032;47.818;-3.732;2022-07-05T08:48:03;8.32;;;4.68;;
55136;SDS011;41032;47.818;-3.732;2022-07-05T08:50:33;6.90;;;3.42;;
55136;SDS011;41032;47.818;-3.732;2022-07-05T08:53:03;2.20;;;1.60;;
55136;SDS011;41032;47.818;-3.732;2022-07-05T08:55:32;3.30;;;1.90;;
55136;SDS011;41032;47.818;-3.732;2022-07-05T08:58:01;1.33;;;1.10;;
55136;SDS011;41032;47.818;-3.732;2022-07-05T09:00:30;2.58;;;1.10;;
55136;SDS011;41032;47.818;-3.732;2022-07-05T09:02:58;2.08;;;0.70;;
55136;SDS011;41032;47.818;-3.732;2022-07-05T09:05:27;2.35;;;0.88;;
55136;SDS011;41032;47.818;-3.732;2022-07-05T09:08:00;3.40;;;0.73;;
55136;SDS011;41032;47.818;-3.732;2022-07-05T09:10:30;0.80;;;0.52;;
55136;SDS011;41032;47.818;-3.732;2022-07-05T09:13:00;3.83;;;0.55;;
55136;SDS011;41032;47.818;-3.732;2022-07-05T09:15:29;1.25;;;0.40;;
55136;SDS011;41032;47.818;-3.732;2022-07-05T09:17:57;1.30;;;0.30;;
55136;SDS011;41032;47.818;-3.732;2022-07-05T09:20:26;2.72;;;0.28;;
55136;SDS011;41032;47.818;-3.732;2022-07-05T09:22:55;3.60;;;0.30;;
55136;SDS011;41032;47.818;-3.732;2022-07-05T09:25:24;0.80;;;0.22;;
55136;SDS011;41032;47.818;-3.732;2022-07-05T09:27:55;0.98;;;0.20;;
55136;SDS011;41032;47.818;-3.732;2022-07-05T09:30:26;1.25;;;0.45;;
55136;SDS011;41032;47.818;-3.732;2022-07-05T09:38:06;1.00;;;0.30;;
55136;SDS011;41032;47.818;-3.732;2022-07-05T09:43:17;1.27;;;0.45;;
55136;SDS011;41032;47.818;-3.732;2022-07-05T09:45:57;1.63;;;0.50;;
55136;SDS011;41032;47.818;-3.732;2022-07-05T09:48:27;0.30;;;0.20;;
55136;SDS011;41032;47.818;-3.732;2022-07-05T09:53:55;0.98;;;0.30;;
55136;SDS011;41032;47.818;-3.732;2022-07-05T09:56:23;4.40;;;1.02;;
55136;SDS011;41032;47.818;-3.732;2022-07-05T09:58:55;2.70;;;0.40;;
55136;SDS011;41032;47.818;-3.732;2022-07-05T10:03:53;1.58;;;0.28;;
55136;SDS011;41032;47.818;-3.732;2022-07-05T10:06:25;1.55;;;0.20;;
55136;SDS011;41032;47.818;-3.732;2022-07-05T10:08:53;1.55;;;0.47;;
55136;SDS011;41032;47.818;-3.732;2022-07-05T10:11:23;3.03;;;0.40;;
55136;SDS011;41032;47.818;-3.732;2022-07-05T10:13:51;0.90;;;0.30;;
55136;SDS011;41032;47.818;-3.732;2022-07-05T10:16:21;0.82;;;0.15;;
55136;SDS011;41032;47.818;-3.732;2022-07-05T10:18:51;4.55;;;1.05;;
55136;SDS011;41032;47.818;-3.732;2022-07-05T10:21:22;1.95;;;0.60;;
55136;SDS011;41032;47.818;-3.732;2022-07-05T10:23:53;1.65;;;0.75;;
55136;SDS011;41032;47.818;-3.732;2022-07-05T10:26:23;1.50;;;0.40;;
55136;SDS011;41032;47.818;-3.732;2022-07-05T10:28:52;0.88;;;0.40;;
55136;SDS011;41032;47.818;-3.732;2022-07-05T10:31:21;1.23;;;0.40;;
55136;SDS011;41032;47.818;-3.732;2022-07-05T10:33:51;1.30;;;0.40;;
55136;SDS011;41032;47.818;-3.732;2022-07-05T10:36:21;3.03;;;0.40;;
55136;SDS011;41032;47.818;-3.732;2022-07-05T10:38:50;1.27;;;0.32;;
55136;SDS011;41032;47.818;-3.732;2022-07-05T10:41:20;3.97;;;0.60;;
55136;SDS011;41032;47.818;-3.732;2022-07-05T10:43:52;8.43;;;1.20;;
55136;SDS011;41032;47.818;-3.732;2022-07-05T10:46:41;4.53;;;0.60;;
55136;SDS011;41032;47.818;-3.732;2022-07-05T10:49:09;1.73;;;0.50;;
55136;SDS011;41032;47.818;-3.732;2022-07-05T10:51:39;3.75;;;0.98;;
55136;SDS011;41032;47.818;-3.732;2022-07-05T10:54:07;2.35;;;0.50;;
55136;SDS011;41032;47.818;-3.732;2022-07-05T10:56:36;1.67;;;0.47;;
55136;SDS011;41032;47.818;-3.732;2022-07-05T10:59:06;1.42;;;0.43;;
55136;SDS011;41032;47.818;-3.732;2022-07-05T11:01:37;1.73;;;0.38;;
55136;SDS011;41032;47.818;-3.732;2022-07-05T11:04:12;2.78;;;0.52;;
55136;SDS011;41032;47.818;-3.732;2022-07-05T11:06:42;1.80;;;0.35;;
55136;SDS011;41032;47.818;-3.732;2022-07-05T11:11:42;4.47;;;0.60;;
55136;SDS011;41032;47.818;-3.732;2022-07-05T11:14:29;4.53;;;0.52;;
55136;SDS011;41032;47.818;-3.732;2022-07-05T11:22:25;0.82;;;0.50;;
55136;SDS011;41032;47.818;-3.732;2022-07-05T11:24:55;3.08;;;0.30;;
55136;SDS011;41032;47.818;-3.732;2022-07-05T11:27:24;2.38;;;0.45;;
55136;SDS011;41032;47.818;-3.732;2022-07-05T11:29:53;1.40;;;0.55;;
55136;SDS011;41032;47.818;-3.732;2022-07-05T11:32:26;0.93;;;0.30;;
55136;SDS011;41032;47.818;-3.732;2022-07-05T11:35:21;0.85;;;0.30;;
55136;SDS011;41032;47.818;-3.732;2022-07-05T11:38:02;0.40;;;0.30;;
55136;SDS011;41032;47.818;-3.732;2022-07-05T11:40:33;1.05;;;0.40;;
55136;SDS011;41032;47.818;-3.732;2022-07-05T11:43:03;0.98;;;0.30;;
55136;SDS011;41032;47.818;-3.732;2022-07-05T11:45:34;0.93;;;0.32;;
55136;SDS011;41032;47.818;-3.732;2022-07-05T11:48:04;0.40;;;0.20;;
55136;SDS011;41032;47.818;-3.732;2022-07-05T11:50:33;0.77;;;0.28;;
55136;SDS011;41032;47.818;-3.732;2022-07-05T11:53:02;0.20;;;0.20;;
55136;SDS011;41032;47.818;-3.732;2022-07-05T11:55:31;0.45;;;0.30;;
55136;SDS011;41032;47.818;-3.732;2022-07-05T11:57:59;0.68;;;0.40;;
55136;SDS011;41032;47.818;-3.732;2022-07-05T12:03:09;0.35;;;0.22;;
55136;SDS011;41032;47.818;-3.732;2022-07-05T12:05:38;1.00;;;0.40;;
55136;SDS011;41032;47.818;-3.732;2022-07-05T12:08:07;1.48;;;0.45;;
55136;SDS011;41032;47.818;-3.732;2022-07-05T12:10:36;0.40;;;0.20;;
55136;SDS011;41032;47.818;-3.732;2022-07-05T12:13:23;1.08;;;0.38;;
55136;SDS011;41032;47.818;-3.732;2022-07-05T12:15:58;1.20;;;0.30;;
55136;SDS011;41032;47.818;-3.732;2022-07-05T12:18:27;0.77;;;0.52;;
55136;SDS011;41032;47.818;-3.732;2022-07-05T12:20:56;0.20;;;0.20;;
55136;SDS011;41032;47.818;-3.732;2022-07-05T12:23:26;0.55;;;0.20;;
55136;SDS011;41032;47.818;-3.732;2022-07-05T12:25:54;2.63;;;1.00;;
55136;SDS011;41032;47.818;-3.732;2022-07-05T12:28:26;0.63;;;0.32;;
55136;SDS011;41032;47.818;-3.732;2022-07-05T12:30:55;0.77;;;0.30;;
55136;SDS011;41032;47.818;-3.732;2022-07-05T12:33:24;1.20;;;0.60;;
55136;SDS011;41032;47.818;-3.732;2022-07-05T12:35:54;0.63;;;0.35;;
55136;SDS011;41032;47.818;-3.732;2022-07-05T12:38:22;0.52;;;0.30;;
55136;SDS011;41032;47.818;-3.732;2022-07-05T12:40:57;0.32;;;0.32;;
55136;SDS011;41032;47.818;-3.732;2022-07-05T12:43:26;0.63;;;0.40;;
55136;SDS011;41032;47.818;-3.732;2022-07-05T12:46:15;1.48;;;0.30;;
55136;SDS011;41032;47.818;-3.732;2022-07-05T12:48:42;1.58;;;0.60;;
55136;SDS011;41032;47.818;-3.732;2022-07-05T12:51:11;3.05;;;0.50;;
55136;SDS011;41032;47.818;-3.732;2022-07-05T12:53:48;1.05;;;0.38;;
55136;SDS011;41032;47.818;-3.732;2022-07-05T12:56:36;1.35;;;0.60;;
55136;SDS011;41032;47.818;-3.732;2022-07-05T12:59:23;1.98;;;0.40;;
55136;SDS011;41032;47.818;-3.732;2022-07-05T13:01:51;1.00;;;0.40;;
55136;SDS011;41032;47.818;-3.732;2022-07-05T13:04:20;0.75;;;0.45;;
55136;SDS011;41032;47.818;-3.732;2022-07-05T13:07:08;0.82;;;0.32;;
55136;SDS011;41032;47.818;-3.732;2022-07-05T13:09:36;3.83;;;0.93;;
55136;SDS011;41032;47.818;-3.732;2022-07-05T13:14:38;0.38;;;0.25;;
55136;SDS011;41032;47.818;-3.732;2022-07-05T13:17:08;0.73;;;0.40;;
55136;SDS011;41032;47.818;-3.732;2022-07-05T13:19:39;2.42;;;0.40;;
55136;SDS011;41032;47.818;-3.732;2022-07-05T13:22:08;2.28;;;0.40;;
55136;SDS011;41032;47.818;-3.732;2022-07-05T13:24:37;0.88;;;0.30;;
55136;SDS011;41032;47.818;-3.732;2022-07-05T13:27:06;2.50;;;0.40;;
55136;SDS011;41032;47.818;-3.732;2022-07-05T13:29:35;0.90;;;0.38;;
55136;SDS011;41032;47.818;-3.732;2022-07-05T13:32:04;1.00;;;0.30;;
55136;SDS011;41032;47.818;-3.732;2022-07-05T13:34:33;1.02;;;0.43;;
55136;SDS011;41032;47.818;-3.732;2022-07-05T13:37:02;1.75;;;0.30;;
55136;SDS011;41032;47.818;-3.732;2022-07-05T13:39:30;0.77;;;0.57;;
55136;SDS011;41032;47.818;-3.732;2022-07-05T13:41:57;0.93;;;0.30;;
55136;SDS011;41032;47.818;-3.732;2022-07-05T13:44:26;1.50;;;0.40;;
55136;SDS011;41032;47.818;-3.732;2022-07-05T13:46:54;0.70;;;0.40;;
55136;SDS011;41032;47.818;-3.732;2022-07-05T13:49:23;1.13;;;0.40;;
55136;SDS011;41032;47.818;-3.732;2022-07-05T13:51:51;1.00;;;0.30;;
55136;SDS011;41032;47.818;-3.732;2022-07-05T13:54:20;1.92;;;0.40;;
55136;SDS011;41032;47.818;-3.732;2022-07-05T13:56:48;6.43;;;0.40;;
55136;SDS011;41032;47.818;-3.732;2022-07-05T13:59:17;2.97;;;0.30;;
55136;SDS011;41032;47.818;-3.732;2022-07-05T14:01:45;1.20;;;0.32;;
55136;SDS011;41032;47.818;-3.732;2022-07-05T14:04:14;1.42;;;0.50;;
55136;SDS011;41032;47.818;-3.732;2022-07-05T14:06:41;1.35;;;0.30;;
55136;SDS011;41032;47.818;-3.732;2022-07-05T14:09:10;2.85;;;0.40;;
55136;SDS011;41032;47.818;-3.732;2022-07-05T14:11:38;1.08;;;0.47;;
55136;SDS011;41032;47.818;-3.732;2022-07-05T14:14:07;4.55;;;1.15;;
55136;SDS011;41032;47.818;-3.732;2022-07-05T14:16:38;2.10;;;0.70;;
55136;SDS011;41032;47.818;-3.732;2022-07-05T14:19:07;0.88;;;0.30;;
55136;SDS011;41032;47.818;-3.732;2022-07-05T14:21:36;0.40;;;0.25;;
55136;SDS011;41032;47.818;-3.732;2022-07-05T14:24:04;2.58;;;0.40;;
55136;SDS011;41032;47.818;-3.732;2022-07-05T14:26:33;2.42;;;0.50;;
55136;SDS011;41032;47.818;-3.732;2022-07-05T14:29:02;0.50;;;0.32;;
55136;SDS011;41032;47.818;-3.732;2022-07-05T14:31:30;0.32;;;0.20;;
55136;SDS011;41032;47.818;-3.732;2022-07-05T14:33:59;2.15;;;0.43;;
55136;SDS011;41032;47.818;-3.732;2022-07-05T14:36:27;0.30;;;0.28;;
55136;SDS011;41032;47.818;-3.732;2022-07-05T14:38:54;1.65;;;0.40;;
55136;SDS011;41032;47.818;-3.732;2022-07-05T14:41:25;1.33;;;0.30;;
55136;SDS011;41032;47.818;-3.732;2022-07-05T14:43:54;1.17;;;0.20;;
55136;SDS011;41032;47.818;-3.732;2022-07-05T14:46:22;0.65;;;0.30;;
55136;SDS011;41032;47.818;-3.732;2022-07-05T14:48:51;0.90;;;0.35;;
55136;SDS011;41032;47.818;-3.732;2022-07-05T14:51:23;0.57;;;0.30;;
55136;SDS011;41032;47.818;-3.732;2022-07-05T14:53:51;0.95;;;0.35;;
55136;SDS011;41032;47.818;-3.732;2022-07-05T14:56:20;1.17;;;0.30;;
55136;SDS011;41032;47.818;-3.732;2022-07-05T14:58:49;0.40;;;0.30;;
55136;SDS011;41032;47.818;-3.732;2022-07-05T15:01:18;0.52;;;0.30;;
55136;SDS011;41032;47.818;-3.732;2022-07-05T15:03:46;0.77;;;0.50;;
55136;SDS011;41032;47.818;-3.732;2022-07-05T15:06:15;1.48;;;0.45;;
55136;SDS011;41032;47.818;-3.732;2022-07-05T15:08:43;3.65;;;0.60;;
55136;SDS011;41032;47.818;-3.732;2022-07-05T15:11:11;4.32;;;0.40;;
55136;SDS011;41032;47.818;-3.732;2022-07-05T15:13:39;1.23;;;0.47;;